createdAt,value
2022-11-20T04:01:49.282Z,30.73
2022-11-20T04:04:17.360Z,28.53
2022-11-20T04:06:45.232Z,28.73
2022-11-20T04:09:13.108Z,27.97
2022-11-20T04:11:42.650Z,31.00
2022-11-20T04:14:15.760Z,29.90
2022-11-20T04:16:45.353Z,29.97
2022-11-20T04:19:14.971Z,27.67
2022-11-20T04:21:43.253Z,31.60
2022-11-20T04:24:12.203Z,30.50
2022-11-20T04:26:41.020Z,31.33
2022-11-20T04:29:08.876Z,30.17
2022-11-20T04:31:37.342Z,28.87
2022-11-20T04:34:08.324Z,28.27
2022-11-20T04:36:36.588Z,27.37
2022-11-20T04:39:06.597Z,27.73
2022-11-20T04:41:36.358Z,29.90
2022-11-20T04:44:05.983Z,26.27
2022-11-20T04:46:36.029Z,28.93
2022-11-20T04:49:03.903Z,27.77
2022-11-20T04:51:33.874Z,30.13
2022-11-20T04:54:01.982Z,30.43
2022-11-20T04:56:29.943Z,29.33
2022-11-20T04:58:57.829Z,29.83
2022-11-20T05:01:26.564Z,33.27
2022-11-20T05:03:54.441Z,28.23
2022-11-20T05:06:24.515Z,26.23
2022-11-20T05:08:53.729Z,32.10
2022-11-20T05:11:23.153Z,30.20
2022-11-20T05:13:52.120Z,26.60
2022-11-20T05:16:22.215Z,27.60
2022-11-20T05:18:50.819Z,25.63
2022-11-20T05:21:19.346Z,28.97
2022-11-20T05:23:47.675Z,25.87
2022-11-20T05:26:18.665Z,25.30
2022-11-20T05:28:46.834Z,26.97
2022-11-20T05:31:19.594Z,23.80
2022-11-20T05:33:49.975Z,22.67
2022-11-20T05:36:18.825Z,24.67
2022-11-20T05:38:50.665Z,25.27
2022-11-20T05:41:21.801Z,25.90
2022-11-20T05:43:51.261Z,26.17
2022-11-20T05:46:26.439Z,26.80
2022-11-20T05:48:56.519Z,26.43
2022-11-20T05:51:24.576Z,30.10
2022-11-20T05:53:52.486Z,28.23
2022-11-20T05:56:23.131Z,26.33
2022-11-20T05:58:51.349Z,26.13
2022-11-20T06:01:21.443Z,26.53
2022-11-20T06:03:51.360Z,26.80
2022-11-20T06:06:20.341Z,30.40
2022-11-20T06:08:48.469Z,25.43
2022-11-20T06:11:17.595Z,26.80
2022-11-20T06:13:47.525Z,28.97
2022-11-20T06:16:18.218Z,27.30
2022-11-20T06:18:46.164Z,26.03
2022-11-20T06:21:16.684Z,25.37
2022-11-20T06:23:46.257Z,24.13
2022-11-20T06:26:16.472Z,27.57
2022-11-20T06:28:45.830Z,22.20
2022-11-20T06:31:15.262Z,24.53
2022-11-20T06:33:43.794Z,23.83
2022-11-20T06:36:12.697Z,23.93
2022-11-20T06:38:41.162Z,24.53
2022-11-20T06:41:12.421Z,24.87
2022-11-20T06:43:40.431Z,24.73
2022-11-20T06:46:11.628Z,23.90
2022-11-20T06:48:39.496Z,22.40
2022-11-20T06:51:09.052Z,24.47
2022-11-20T06:53:37.881Z,24.30
2022-11-20T06:56:06.442Z,24.80
2022-11-20T06:58:35.373Z,26.50
2022-11-20T07:01:04.542Z,27.40
2022-11-20T07:03:33.888Z,27.13
2022-11-20T07:06:03.389Z,25.03
2022-11-20T07:08:31.940Z,23.90
2022-11-20T07:11:00.789Z,25.73
2022-11-20T07:13:29.264Z,28.03
2022-11-20T07:16:00.917Z,24.17
2022-11-20T07:18:28.965Z,25.40
2022-11-20T07:20:58.188Z,27.93
2022-11-20T07:23:26.141Z,28.27
2022-11-20T07:25:54.113Z,27.07
2022-11-20T07:28:22.017Z,24.57
2022-11-20T07:30:52.327Z,26.17
2022-11-20T07:33:20.476Z,24.50
2022-11-20T07:35:48.570Z,27.23
2022-11-20T07:38:17.799Z,24.07
2022-11-20T07:40:45.861Z,24.27
2022-11-20T07:43:13.861Z,29.07
2022-11-20T07:45:41.911Z,29.53
2022-11-20T07:48:09.775Z,26.63
2022-11-20T07:50:37.674Z,26.83
2022-11-20T07:53:06.642Z,31.80
2022-11-20T07:55:35.940Z,29.90
2022-11-20T07:58:03.860Z,28.77
2022-11-20T08:00:31.789Z,33.37
2022-11-20T08:02:59.740Z,32.93
2022-11-20T08:05:27.632Z,30.13
2022-11-20T08:07:55.566Z,29.50
2022-11-20T08:10:23.461Z,32.10
2022-11-20T08:13:12.219Z,31.53
2022-11-20T08:15:41.730Z,29.37
2022-11-20T08:20:59.531Z,25.87
2022-11-20T08:23:27.372Z,32.53
2022-11-20T08:25:55.359Z,29.73
2022-11-20T08:28:24.575Z,29.23
2022-11-20T08:30:52.538Z,29.33
2022-11-20T08:33:20.501Z,31.53
2022-11-20T08:35:48.470Z,34.63
2022-11-20T08:38:16.307Z,32.00
2022-11-20T08:41:05.107Z,44.73
2022-11-20T08:43:34.482Z,45.10
2022-11-20T08:46:02.602Z,31.60
2022-11-20T08:48:30.468Z,30.53
2022-11-20T08:51:00.564Z,27.53
2022-11-20T08:53:28.513Z,29.13
2022-11-20T08:55:59.795Z,28.90
2022-11-20T08:58:27.799Z,28.53
2022-11-20T09:00:57.301Z,39.90
2022-11-20T09:03:32.666Z,30.13
2022-11-20T09:06:02.097Z,31.83
2022-11-20T09:08:31.312Z,29.50
2022-11-20T09:11:00.471Z,32.90
2022-11-20T09:13:30.103Z,29.63
2022-11-20T09:16:00.996Z,32.67
2022-11-20T09:18:31.433Z,29.97
2022-11-20T09:21:00.167Z,28.03
2022-11-20T09:23:28.688Z,32.67
2022-11-20T09:26:00.507Z,32.50
2022-11-20T09:28:28.635Z,30.80
2022-11-20T09:30:56.499Z,34.67
2022-11-20T09:33:25.706Z,30.20
2022-11-20T09:35:53.650Z,31.67
2022-11-20T09:38:21.513Z,32.50
2022-11-20T09:40:55.618Z,34.70
2022-11-20T09:43:33.772Z,31.60
2022-11-20T09:46:09.768Z,30.63
2022-11-20T09:49:08.188Z,32.70
2022-11-20T09:51:44.741Z,29.33
2022-11-20T09:54:19.438Z,32.87
2022-11-20T09:56:51.619Z,31.40
2022-11-20T09:59:40.570Z,33.80
2022-11-20T10:02:18.792Z,39.10
2022-11-20T10:04:54.603Z,45.93
2022-11-20T10:07:32.405Z,33.57
2022-11-20T10:10:01.602Z,49.70
2022-11-20T10:12:40.424Z,45.23
2022-11-20T10:15:23.277Z,55.73
2022-11-20T10:18:04.617Z,34.90
2022-11-20T10:20:45.594Z,90.43
2022-11-20T10:23:34.123Z,73.60
2022-11-20T10:26:04.920Z,72.87
2022-11-20T10:28:55.448Z,57.10
2022-11-20T10:31:33.058Z,95.13
2022-11-20T10:34:12.088Z,55.87
2022-11-20T10:36:48.520Z,37.43
2022-11-20T10:39:25.014Z,55.97
2022-11-20T10:41:54.697Z,89.10
2022-11-20T10:44:38.139Z,56.63
2022-11-20T10:47:06.972Z,40.40
2022-11-20T10:49:36.265Z,35.57
2022-11-20T10:52:13.074Z,33.83
2022-11-20T10:54:49.533Z,36.70
2022-11-20T10:57:26.376Z,35.10
2022-11-20T11:00:05.385Z,31.77
2022-11-20T11:02:43.958Z,36.47
2022-11-20T11:05:24.921Z,30.87
2022-11-20T11:07:56.933Z,64.90
2022-11-20T11:10:30.031Z,42.30
2022-11-20T11:12:57.924Z,40.10
2022-11-20T11:15:30.902Z,47.50
2022-11-20T11:17:59.028Z,35.10
2022-11-20T11:20:28.068Z,31.77
2022-11-20T11:22:59.621Z,30.73
2022-11-20T11:25:30.885Z,30.87
2022-11-20T11:28:01.172Z,30.47
2022-11-20T11:30:30.950Z,29.07
2022-11-20T11:33:08.749Z,29.70
2022-11-20T11:35:49.963Z,30.10
2022-11-20T11:38:25.138Z,30.27
2022-11-20T11:40:57.312Z,30.07
2022-11-20T11:43:46.018Z,33.20
2022-11-20T11:46:29.205Z,30.60
2022-11-20T11:48:59.031Z,30.57
2022-11-20T11:51:31.230Z,27.40
2022-11-20T11:54:01.801Z,26.87
2022-11-20T11:56:30.442Z,33.93
2022-11-20T11:59:02.606Z,28.83
2022-11-20T12:01:37.318Z,28.95
2022-11-20T12:04:14.858Z,32.83
2022-11-20T12:06:47.627Z,53.43
2022-11-20T12:09:18.235Z,37.20
2022-11-20T12:11:51.470Z,41.27
2022-11-20T12:14:25.071Z,33.63
2022-11-20T12:16:54.233Z,32.47
2022-11-20T12:19:22.441Z,33.30
2022-11-20T12:22:02.514Z,28.47
2022-11-20T12:24:44.939Z,24.92
2022-11-20T12:27:53.766Z,25.42
2022-11-20T12:30:23.311Z,32.30
2022-11-20T12:33:14.558Z,28.87
2022-11-20T12:35:55.048Z,31.20
2022-11-20T12:38:51.292Z,26.10
2022-11-20T12:41:49.590Z,28.40
2022-11-20T12:44:48.251Z,26.60
2022-11-20T12:47:23.797Z,26.30
2022-11-20T12:50:01.551Z,26.40
2022-11-20T12:52:41.230Z,25.73
2022-11-20T12:55:34.126Z,27.97
2022-11-20T12:58:12.957Z,27.00
2022-11-20T13:00:52.675Z,25.43
2022-11-20T13:03:44.262Z,27.50
2022-11-20T13:06:18.699Z,27.50
2022-11-20T13:08:54.119Z,28.85
2022-11-20T13:11:29.466Z,28.63
2022-11-20T13:14:15.817Z,26.95
2022-11-20T13:16:49.862Z,27.45
2022-11-20T13:19:19.226Z,28.00
2022-11-20T13:21:50.220Z,26.42
2022-11-20T13:24:30.871Z,27.85
2022-11-20T13:27:07.093Z,27.27
2022-11-20T13:29:37.874Z,26.92
2022-11-20T13:32:15.841Z,24.38
2022-11-20T13:34:54.088Z,23.80
2022-11-20T13:37:31.661Z,23.65
2022-11-20T13:40:21.608Z,24.02
2022-11-20T13:42:58.118Z,26.63
2022-11-20T13:45:29.608Z,26.35
2022-11-20T13:47:59.634Z,24.55
2022-11-20T13:50:42.927Z,24.33
2022-11-20T13:53:23.729Z,27.17
2022-11-20T13:55:57.208Z,25.75
2022-11-20T13:58:37.871Z,26.73
2022-11-20T14:01:13.014Z,27.85
2022-11-20T14:06:31.022Z,27.10
2022-11-20T14:08:59.645Z,24.73
2022-11-20T14:11:29.404Z,25.65
2022-11-20T14:14:03.848Z,23.88
2022-11-20T14:16:35.431Z,23.65
2022-11-20T14:19:26.830Z,22.77
2022-11-20T14:21:56.481Z,24.50
2022-11-20T14:24:26.912Z,23.67
2022-11-20T14:26:55.670Z,24.98
2022-11-20T14:29:29.149Z,22.77
2022-11-20T14:31:58.976Z,24.50
2022-11-20T14:34:29.615Z,22.52
2022-11-20T14:37:00.613Z,23.63
2022-11-20T14:39:33.029Z,22.00
2022-11-20T14:42:01.183Z,23.42
2022-11-20T14:44:32.571Z,22.88
2022-11-20T14:47:03.908Z,22.27
2022-11-20T14:49:33.470Z,22.48
2022-11-20T14:52:02.452Z,23.65
2022-11-20T14:54:31.584Z,25.70
2022-11-20T14:57:01.369Z,24.77
2022-11-20T14:59:32.044Z,23.10
2022-11-20T15:02:03.555Z,23.40
2022-11-20T15:04:32.233Z,23.85
2022-11-20T15:07:01.519Z,22.17
2022-11-20T15:09:29.486Z,19.15
2022-11-20T15:11:59.612Z,20.85
2022-11-20T15:14:29.830Z,20.05
2022-11-20T15:16:58.229Z,20.43
2022-11-20T15:19:28.654Z,22.40
2022-11-20T15:21:57.233Z,21.30
2022-11-20T15:24:25.475Z,23.95
2022-11-20T15:26:53.740Z,21.25
2022-11-20T15:29:25.306Z,22.75
2022-11-20T15:31:55.121Z,22.67
2022-11-20T15:34:23.264Z,18.25
2022-11-20T15:36:53.876Z,19.42
2022-11-20T15:39:22.156Z,20.05
2022-11-20T15:41:50.112Z,22.60
2022-11-20T15:44:18.024Z,21.53
2022-11-20T15:46:47.245Z,19.13
2022-11-20T15:49:19.557Z,19.38
2022-11-20T15:51:51.027Z,22.08
2022-11-20T15:54:22.406Z,19.60
2022-11-20T15:56:53.086Z,23.65
2022-11-20T15:59:21.126Z,20.50
2022-11-20T16:01:49.044Z,20.65
2022-11-20T16:04:19.288Z,20.10
2022-11-20T16:06:47.196Z,19.20
2022-11-20T16:09:15.072Z,17.55
2022-11-20T16:11:44.522Z,18.95
2022-11-20T16:14:30.081Z,21.85
2022-11-20T16:16:57.947Z,20.85
2022-11-20T16:19:25.810Z,21.13
2022-11-20T16:21:55.193Z,22.03
2022-11-20T16:24:26.436Z,18.70
2022-11-20T16:26:56.753Z,18.23
2022-11-20T16:29:24.898Z,21.13
2022-11-20T16:31:52.785Z,21.17
2022-11-20T16:34:20.780Z,23.95
2022-11-20T16:36:49.361Z,20.10
2022-11-20T16:39:22.086Z,22.65
2022-11-20T16:41:51.373Z,20.33
2022-11-20T16:44:20.610Z,21.35
2022-11-20T16:46:48.474Z,21.15
2022-11-20T16:49:16.470Z,21.95
2022-11-20T16:51:44.505Z,23.35
2022-11-20T16:54:17.911Z,19.80
2022-11-20T16:56:48.940Z,23.60
2022-11-20T16:59:17.084Z,24.67
2022-11-20T17:01:46.722Z,21.47
2022-11-20T17:04:14.774Z,22.70
2022-11-20T17:06:45.386Z,22.17
2022-11-20T17:09:14.062Z,22.45
2022-11-20T17:11:42.353Z,21.37
2022-11-20T17:14:12.730Z,24.38
2022-11-20T17:16:40.615Z,20.90
2022-11-20T17:19:10.201Z,25.87
2022-11-20T17:21:38.203Z,24.20
2022-11-20T17:24:09.133Z,22.15
2022-11-20T17:26:38.047Z,22.08
2022-11-20T17:29:07.570Z,24.98
2022-11-20T17:31:38.208Z,24.48
2022-11-20T17:34:07.044Z,23.02
2022-11-20T17:36:39.566Z,23.27
2022-11-20T17:39:10.086Z,23.35
2022-11-20T17:41:37.926Z,22.25
2022-11-20T17:44:06.092Z,23.33
2022-11-20T17:46:35.072Z,20.45
2022-11-20T17:49:03.829Z,20.30
2022-11-20T17:51:34.836Z,25.20
2022-11-20T17:54:07.213Z,22.80
2022-11-20T17:56:54.075Z,21.70
2022-11-20T17:59:22.065Z,21.95
2022-11-20T18:01:50.155Z,21.53
2022-11-20T18:04:18.442Z,22.20
2022-11-20T18:06:46.656Z,23.00
2022-11-20T18:09:15.950Z,22.30
2022-11-20T18:11:44.102Z,23.10
2022-11-20T18:14:31.109Z,21.53
2022-11-20T18:17:00.558Z,24.13
2022-11-20T18:19:32.623Z,22.67
2022-11-20T18:22:01.615Z,23.10
2022-11-20T18:24:31.142Z,21.45
2022-11-20T18:26:59.400Z,21.85
2022-11-20T18:29:28.129Z,15.65
2022-11-20T18:31:56.006Z,19.20
2022-11-20T18:34:24.113Z,18.23
2022-11-20T18:36:52.051Z,23.77
2022-11-20T18:39:20.078Z,18.93
2022-11-20T18:42:06.592Z,25.83
2022-11-20T18:44:53.980Z,14.87
2022-11-20T18:47:24.677Z,13.90
2022-11-20T18:49:54.000Z,13.07
2022-11-20T18:52:24.132Z,12.90
2022-11-20T18:54:52.517Z,8.57
2022-11-20T18:57:23.846Z,7.90
2022-11-20T18:59:53.550Z,9.57
2022-11-20T19:02:22.537Z,5.03
2022-11-20T19:04:50.423Z,3.20
2022-11-20T19:07:18.900Z,4.43
2022-11-20T19:09:50.315Z,2.43
2022-11-20T19:12:18.509Z,1.53
2022-11-20T19:14:47.855Z,1.80
2022-11-20T19:17:17.508Z,2.83
2022-11-20T19:19:46.292Z,1.40
2022-11-20T19:22:14.154Z,3.83
2022-11-20T19:24:42.012Z,2.10
2022-11-20T19:27:09.924Z,2.13
2022-11-20T19:29:38.278Z,1.50
2022-11-20T19:32:07.577Z,2.33
2022-11-20T19:34:35.489Z,1.40
2022-11-20T19:37:03.337Z,1.80
2022-11-20T19:39:31.181Z,4.13
2022-11-20T19:41:59.041Z,10.50
2022-11-20T19:44:26.921Z,3.10
2022-11-20T19:46:57.032Z,8.10
2022-11-20T19:49:26.591Z,5.03
2022-11-20T19:51:54.631Z,3.10
2022-11-20T19:54:22.556Z,3.50
2022-11-20T19:56:51.473Z,3.03
2022-11-20T19:59:19.319Z,3.30
2022-11-20T20:01:47.291Z,3.10
2022-11-20T20:04:15.302Z,2.37
2022-11-20T20:06:44.541Z,3.40
2022-11-20T20:09:13.780Z,4.77
2022-11-20T20:11:45.424Z,2.50
2022-11-20T20:14:15.908Z,2.80
2022-11-20T20:16:44.222Z,3.00
2022-11-20T20:19:14.388Z,2.63
2022-11-20T20:21:47.828Z,3.93
2022-11-20T20:24:15.728Z,2.17
2022-11-20T20:26:49.021Z,2.33
2022-11-20T20:29:20.458Z,1.50
2022-11-20T20:31:48.390Z,2.30
2022-11-20T20:34:16.837Z,3.20
2022-11-20T20:36:46.049Z,2.27
2022-11-20T20:39:13.954Z,2.97
2022-11-20T20:41:41.859Z,3.17
2022-11-20T20:44:27.209Z,3.30
2022-11-20T20:46:55.098Z,10.70
2022-11-20T20:49:24.151Z,3.33
2022-11-20T20:51:53.927Z,1.90
2022-11-20T20:54:22.082Z,13.90
2022-11-20T20:56:52.039Z,3.80
2022-11-20T20:59:23.240Z,2.47
2022-11-20T21:01:51.517Z,20.30
2022-11-20T21:04:19.422Z,1.90
2022-11-20T21:06:47.280Z,1.93
2022-11-20T21:09:16.800Z,1.60
2022-11-20T21:11:47.797Z,1.43
2022-11-20T21:14:15.663Z,2.07
2022-11-20T21:16:44.015Z,3.70
2022-11-20T21:19:12.310Z,2.33
2022-11-20T21:21:58.000Z,2.53
2022-11-20T21:24:28.102Z,2.47
2022-11-20T21:26:56.724Z,2.40
2022-11-20T21:29:26.050Z,3.13
2022-11-20T21:31:54.316Z,3.10
2022-11-20T21:34:23.433Z,4.47
2022-11-20T21:36:51.963Z,5.73
2022-11-20T21:39:22.834Z,4.90
2022-11-20T21:41:52.056Z,2.13
2022-11-20T21:44:35.081Z,1.77
2022-11-20T21:47:02.994Z,2.83
2022-11-20T21:49:30.866Z,1.50
2022-11-20T21:51:59.744Z,2.90
2022-11-20T21:54:27.699Z,1.97
2022-11-20T21:56:57.145Z,2.87
2022-11-20T21:59:25.170Z,1.50
2022-11-20T22:01:53.104Z,3.07
2022-11-20T22:04:22.891Z,1.50
2022-11-20T22:06:50.918Z,2.60
2022-11-20T22:09:18.767Z,2.83
2022-11-20T22:11:46.678Z,3.40
2022-11-20T22:14:20.651Z,5.43
2022-11-20T22:16:50.077Z,5.37
2022-11-20T22:19:19.035Z,5.90
2022-11-20T22:21:47.245Z,3.87
2022-11-20T22:24:16.992Z,4.37
2022-11-20T22:26:45.394Z,5.87
2022-11-20T22:29:16.443Z,6.07
